Voluntown, Connecticut
Current Conditions -  °F | °C
As of 3:53 AM on Friday 21 Nov 2014 (Local Time) from KWST Reporting Station
Clear Clear  
Wind Chill: 28°   Ceiling: Unl
Heat Index: 28°   Visibility: 10mi
Dew Point: 19°   Wind: 3mph
Humidity: 69%   Direction: 260°W
Pressure: 30.01"   Gusts: NA
Location:  41.57°N, 71.87°W
Report Text: KWST 210853Z AUTO 26003KT 10SM CLR M02/M07 A3001 RMK AO2 SLP164 T10221072 53016
Loading
Personal Weather Stations






























Interactive Weather Map New forecast layout! Learn more

10-Day Weather Forecast

Advertisements
Track Severe Weather on mobile